createdAt,value
2023-01-13T00:00:17.181Z,62.26
2023-01-13T00:03:25.903Z,62.41
2023-01-13T00:06:59.785Z,62.95
2023-01-13T00:11:18.193Z,62.94
2023-01-13T00:15:48.079Z,63.02
2023-01-13T00:26:53.748Z,62.86
2023-01-13T00:30:02.901Z,62.31
2023-01-13T00:33:40.013Z,62.10
2023-01-13T00:37:17.747Z,62.70
2023-01-13T00:40:51.463Z,63.18
2023-01-13T00:44:25.215Z,62.30
2023-01-13T00:47:54.825Z,62.91
2023-01-13T00:51:30.836Z,63.08
2023-01-13T00:54:57.881Z,62.45
2023-01-13T00:59:15.957Z,61.81
2023-01-13T01:03:45.666Z,61.76
2023-01-13T01:08:15.344Z,61.77
2023-01-13T01:12:45.076Z,62.58
2023-01-13T01:16:26.662Z,62.93
2023-01-13T01:20:34.745Z,62.78
2023-01-13T01:24:01.545Z,62.68
2023-01-13T01:28:31.140Z,62.27
2023-01-13T01:35:15.775Z,60.70
2023-01-13T01:42:13.795Z,62.44
2023-01-13T01:45:52.723Z,62.94
2023-01-13T01:49:28.871Z,60.37
2023-01-13T01:57:19.418Z,62.29
2023-01-13T02:01:49.096Z,62.95
2023-01-13T02:05:34.387Z,58.39
2023-01-13T02:09:52.897Z,62.25
2023-01-13T02:14:22.591Z,62.71
2023-01-13T02:18:53.323Z,60.73
2023-01-13T02:23:41.742Z,59.71
2023-01-13T02:27:24.448Z,61.56
2023-01-13T02:30:41.775Z,63.99
2023-01-13T02:33:59.840Z,60.67
2023-01-13T02:37:29.555Z,60.09
2023-01-13T02:41:05.779Z,60.63
2023-01-13T02:44:35.685Z,59.94
2023-01-13T02:48:09.499Z,60.09
2023-01-13T02:51:41.620Z,60.34
2023-01-13T02:55:09.493Z,60.83
2023-01-13T02:58:40.987Z,60.45
2023-01-13T03:02:14.485Z,61.56
2023-01-13T03:05:47.435Z,61.99
2023-01-13T03:09:17.333Z,63.15
2023-01-13T03:13:05.767Z,63.46
2023-01-13T03:17:39.718Z,63.58
2023-01-13T03:22:13.450Z,63.77
2023-01-13T03:26:48.976Z,63.48
2023-01-13T03:33:38.716Z,63.17
2023-01-13T03:38:08.284Z,63.23
2023-01-13T03:46:02.543Z,62.44
2023-01-13T03:50:33.629Z,61.87
2023-01-13T03:54:03.560Z,62.15
2023-01-13T03:57:39.686Z,62.69
2023-01-13T04:01:12.859Z,63.12
2023-01-13T04:05:16.320Z,61.65
2023-01-13T04:08:50.637Z,60.66
2023-01-13T04:12:23.644Z,60.98
2023-01-13T04:16:44.731Z,61.39
2023-01-13T04:24:29.439Z,59.95
2023-01-13T04:35:25.595Z,60.45
2023-01-13T04:38:58.773Z,59.80
2023-01-13T04:43:17.668Z,63.15
2023-01-13T04:47:47.205Z,60.64
2023-01-13T04:52:17.041Z,59.15
2023-01-13T04:56:46.668Z,63.19
2023-01-13T05:00:30.352Z,61.10
2023-01-13T05:04:28.863Z,59.08
2023-01-13T05:07:57.369Z,59.93
2023-01-13T05:11:27.662Z,63.53
2023-01-13T05:15:01.624Z,60.88
2023-01-13T05:18:33.497Z,59.53
2023-01-13T05:22:07.527Z,60.69
2023-01-13T05:25:44.008Z,63.86
2023-01-13T05:29:13.065Z,62.20
2023-01-13T05:32:49.750Z,60.79
2023-01-13T05:37:09.673Z,59.22
2023-01-13T05:48:04.588Z,62.71
2023-01-13T05:51:34.583Z,61.27
2023-01-13T05:55:04.817Z,61.10
2023-01-13T05:58:32.251Z,60.53
2023-01-13T06:01:54.782Z,59.73
2023-01-13T06:04:23.428Z,59.53
2023-01-13T06:06:52.175Z,60.41
2023-01-13T06:09:23.056Z,63.40
2023-01-13T06:11:51.805Z,62.92
2023-01-13T06:14:20.514Z,62.09
2023-01-13T06:16:49.273Z,62.27
2023-01-13T06:19:17.939Z,62.15
2023-01-13T06:21:46.925Z,61.27
2023-01-13T06:24:15.773Z,60.93
2023-01-13T06:26:44.637Z,60.78
2023-01-13T06:29:15.398Z,60.87
2023-01-13T06:31:44.239Z,60.99
2023-01-13T06:34:15.271Z,61.12
2023-01-13T06:36:52.487Z,61.73
2023-01-13T06:39:25.731Z,61.80
2023-01-13T06:42:13.752Z,61.32
2023-01-13T06:44:43.483Z,61.24
2023-01-13T06:47:12.196Z,61.03
2023-01-13T06:49:40.928Z,61.25
2023-01-13T06:52:09.674Z,61.40
2023-01-13T06:54:38.329Z,60.80
2023-01-13T06:57:07.005Z,59.76
2023-01-13T06:59:35.751Z,59.30
2023-01-13T07:02:04.771Z,60.80
2023-01-13T07:04:33.611Z,63.37
2023-01-13T07:07:02.319Z,62.83
2023-01-13T07:09:31.047Z,61.38
2023-01-13T07:11:59.720Z,60.05
2023-01-13T07:14:48.617Z,59.90
2023-01-13T07:17:29.504Z,60.39
2023-01-13T07:20:00.581Z,60.92
2023-01-13T07:22:29.255Z,61.35
2023-01-13T07:25:01.663Z,61.72
2023-01-13T07:27:30.992Z,61.92
2023-01-13T07:29:59.907Z,62.06
2023-01-13T07:32:29.396Z,62.15
2023-01-13T07:35:05.062Z,62.18
2023-01-13T07:37:39.628Z,62.07
2023-01-13T07:40:10.240Z,62.20
2023-01-13T07:42:58.232Z,61.95
2023-01-13T07:45:27.447Z,62.47
2023-01-13T07:47:56.620Z,62.67
2023-01-13T07:50:25.617Z,62.83
2023-01-13T07:52:58.753Z,62.38
2023-01-13T07:55:27.537Z,61.91
2023-01-13T07:57:56.313Z,61.74
2023-01-13T08:00:25.197Z,61.79
2023-01-13T08:02:53.894Z,61.85
2023-01-13T08:05:24.502Z,61.82
2023-01-13T08:07:53.945Z,61.76
2023-01-13T08:10:27.017Z,61.84
2023-01-13T08:13:14.615Z,61.77
2023-01-13T08:15:44.353Z,62.05
2023-01-13T08:18:15.167Z,62.18
2023-01-13T08:20:44.428Z,62.13
2023-01-13T08:23:13.236Z,61.85
2023-01-13T08:25:42.169Z,62.20
2023-01-13T08:28:11.733Z,62.36
2023-01-13T08:30:40.825Z,62.25
2023-01-13T08:33:12.422Z,62.03
2023-01-13T08:35:42.815Z,61.70
2023-01-13T08:38:11.828Z,61.71
2023-01-13T08:40:41.288Z,61.94
2023-01-13T08:43:10.017Z,62.25
2023-01-13T08:45:38.768Z,62.09
2023-01-13T08:48:12.726Z,62.03
2023-01-13T08:50:41.650Z,61.85
2023-01-13T08:53:10.831Z,62.02
2023-01-13T08:55:41.252Z,62.08
2023-01-13T08:58:15.850Z,61.88
2023-01-13T09:00:45.304Z,61.82
2023-01-13T09:03:13.943Z,62.12
2023-01-13T09:05:42.648Z,62.25
2023-01-13T09:08:11.394Z,62.20
2023-01-13T09:10:40.846Z,62.53
2023-01-13T09:13:13.985Z,62.68
2023-01-13T09:15:46.265Z,62.48
2023-01-13T09:18:15.267Z,62.36
2023-01-13T09:20:45.010Z,62.25
2023-01-13T09:23:13.695Z,62.18
2023-01-13T09:25:42.461Z,62.32
2023-01-13T09:28:11.082Z,62.41
2023-01-13T09:30:39.832Z,62.38
2023-01-13T09:33:27.367Z,62.55
2023-01-13T09:35:59.607Z,62.71
2023-01-13T09:38:28.530Z,62.61
2023-01-13T09:40:57.310Z,62.58
2023-01-13T09:43:56.464Z,62.99
2023-01-13T09:46:47.689Z,63.02
2023-01-13T09:49:25.122Z,63.38
2023-01-13T09:52:16.254Z,63.98
2023-01-13T09:54:54.234Z,63.89
2023-01-13T09:57:22.939Z,63.77
2023-01-13T09:59:51.760Z,63.80
2023-01-13T10:02:20.465Z,63.83
2023-01-13T10:05:23.500Z,63.91
2023-01-13T10:08:00.086Z,63.88
2023-01-13T10:10:43.385Z,63.29
2023-01-13T10:13:38.514Z,62.90
2023-01-13T10:16:28.331Z,62.46
2023-01-13T10:19:15.500Z,62.38
2023-01-13T10:22:09.519Z,62.39
2023-01-13T10:25:10.260Z,62.25
2023-01-13T10:27:43.457Z,61.82
2023-01-13T10:30:34.237Z,61.90
2023-01-13T10:33:10.847Z,61.88
2023-01-13T10:35:58.273Z,61.34
2023-01-13T10:38:42.208Z,61.20
2023-01-13T10:41:16.712Z,61.17
2023-01-13T10:43:57.423Z,61.07
2023-01-13T10:46:26.951Z,60.92
2023-01-13T10:48:57.799Z,60.46
2023-01-13T10:51:26.484Z,60.29
2023-01-13T10:54:24.531Z,60.43
2023-01-13T10:57:20.229Z,60.65
2023-01-13T10:59:51.403Z,60.95
2023-01-13T11:02:36.350Z,60.94
2023-01-13T11:05:24.979Z,60.91
2023-01-13T11:07:56.661Z,60.99
2023-01-13T11:10:29.620Z,61.13
2023-01-13T11:13:05.681Z,59.65
2023-01-13T11:16:05.746Z,59.68
2023-01-13T11:19:02.855Z,62.22
2023-01-13T11:22:06.623Z,62.60
2023-01-13T11:25:03.680Z,60.61
2023-01-13T11:27:52.720Z,59.81
2023-01-13T11:30:59.201Z,59.57
2023-01-13T11:33:53.845Z,61.33
2023-01-13T11:36:32.019Z,62.51
2023-01-13T11:39:30.146Z,61.75
2023-01-13T11:42:21.598Z,59.91
2023-01-13T11:45:10.770Z,59.00
2023-01-13T11:47:39.845Z,60.73
2023-01-13T11:50:43.423Z,62.39
2023-01-13T11:53:21.661Z,62.83
2023-01-13T11:55:55.596Z,60.49
2023-01-13T11:59:14.679Z,58.61
2023-01-13T12:02:11.292Z,60.38
2023-01-13T12:05:05.534Z,62.07
2023-01-13T12:07:54.063Z,62.93
2023-01-13T12:10:24.380Z,61.38
2023-01-13T12:13:04.680Z,58.16
2023-01-13T12:15:56.478Z,59.64
2023-01-13T12:18:39.745Z,61.14
2023-01-13T12:21:33.309Z,62.82
2023-01-13T12:24:29.800Z,61.26
2023-01-13T12:27:26.383Z,59.83
2023-01-13T12:30:00.274Z,59.38
2023-01-13T12:32:40.720Z,60.78
2023-01-13T12:35:38.124Z,62.37
2023-01-13T12:38:23.358Z,62.41
2023-01-13T12:41:27.106Z,60.07
2023-01-13T12:44:16.519Z,58.76
2023-01-13T12:46:53.555Z,60.39
2023-01-13T12:49:34.299Z,61.85
2023-01-13T12:52:16.386Z,62.86
2023-01-13T12:54:45.025Z,61.90
2023-01-13T12:57:24.930Z,59.73
2023-01-13T13:00:13.781Z,59.28
2023-01-13T13:03:04.771Z,60.51
2023-01-13T13:05:49.297Z,61.85
2023-01-13T13:08:42.901Z,62.41
2023-01-13T13:11:32.819Z,60.27
2023-01-13T13:14:39.833Z,58.89
2023-01-13T13:17:20.527Z,60.60
2023-01-13T13:19:50.458Z,62.12
2023-01-13T13:22:22.528Z,62.42
2023-01-13T13:25:00.107Z,60.15
2023-01-13T13:27:38.041Z,59.05
2023-01-13T13:30:34.141Z,59.99
2023-01-13T13:33:56.290Z,62.02
2023-01-13T13:36:56.044Z,62.96
2023-01-13T13:39:48.803Z,61.67
2023-01-13T13:42:45.241Z,61.01
2023-01-13T13:45:43.267Z,60.20
2023-01-13T13:48:30.882Z,59.81
2023-01-13T13:51:31.921Z,59.82
2023-01-13T13:54:03.015Z,60.50
2023-01-13T13:56:43.760Z,61.02
2023-01-13T13:59:20.791Z,61.31
2023-01-13T14:02:04.032Z,62.57
2023-01-13T14:04:39.494Z,63.47
2023-01-13T14:07:22.990Z,64.33
2023-01-13T14:09:56.922Z,64.96
2023-01-13T14:12:28.332Z,64.92
2023-01-13T14:15:11.955Z,64.74
2023-01-13T14:17:42.893Z,65.02
2023-01-13T14:20:18.996Z,65.24
2023-01-13T14:22:54.235Z,65.25
2023-01-13T14:25:40.005Z,65.32
2023-01-13T14:28:44.907Z,65.29
2023-01-13T14:31:24.246Z,65.35
2023-01-13T14:34:01.626Z,65.16
2023-01-13T14:36:33.446Z,65.17
2023-01-13T14:39:05.153Z,65.20
2023-01-13T14:41:47.439Z,65.65
2023-01-13T14:44:30.135Z,64.41
2023-01-13T14:47:23.981Z,64.74
2023-01-13T14:50:05.808Z,65.54
2023-01-13T14:52:48.373Z,65.77
2023-01-13T14:55:40.683Z,66.23
2023-01-13T14:58:21.441Z,65.70
2023-01-13T15:00:53.097Z,65.39
2023-01-13T15:03:22.263Z,65.50
2023-01-13T15:05:55.846Z,66.17
2023-01-13T15:08:32.326Z,65.69
2023-01-13T15:11:21.842Z,65.32
2023-01-13T15:14:10.527Z,65.08
2023-01-13T15:16:41.798Z,64.87
2023-01-13T15:19:12.029Z,65.19
2023-01-13T15:21:42.511Z,62.37
2023-01-13T15:24:11.842Z,60.86
2023-01-13T15:26:43.732Z,62.67
2023-01-13T15:29:18.022Z,62.09
2023-01-13T15:31:46.742Z,60.42
2023-01-13T15:34:15.701Z,59.47
2023-01-13T15:36:45.083Z,63.91
2023-01-13T15:39:14.132Z,64.62
2023-01-13T15:42:01.203Z,64.21
2023-01-13T15:44:48.202Z,63.46
2023-01-13T15:47:17.421Z,62.10
2023-01-13T15:49:47.310Z,60.61
2023-01-13T15:52:22.407Z,59.61
2023-01-13T15:54:53.237Z,63.99
2023-01-13T15:57:26.669Z,62.49
2023-01-13T16:00:01.977Z,58.97
2023-01-13T16:02:31.520Z,61.77
2023-01-13T16:05:00.661Z,64.34
2023-01-13T16:07:32.936Z,60.95
2023-01-13T16:10:03.813Z,59.26
2023-01-13T16:12:34.359Z,63.49
2023-01-13T16:15:03.233Z,63.85
2023-01-13T16:17:35.803Z,60.67
2023-01-13T16:20:05.065Z,59.06
2023-01-13T16:22:33.740Z,62.64
2023-01-13T16:25:02.768Z,64.02
2023-01-13T16:27:58.073Z,61.55
2023-01-13T16:30:36.730Z,60.25
2023-01-13T16:33:10.494Z,60.88
2023-01-13T16:36:09.446Z,61.74
2023-01-13T16:38:28.010Z,62.35
2023-01-13T16:40:57.925Z,62.64
2023-01-13T16:43:28.196Z,62.82
2023-01-13T16:45:56.951Z,62.85
2023-01-13T16:48:25.907Z,62.66
2023-01-13T16:50:55.009Z,62.90
2023-01-13T16:53:23.949Z,62.07
2023-01-13T16:55:53.209Z,61.66
2023-01-13T16:58:22.196Z,61.65
2023-01-13T17:00:54.933Z,61.73
2023-01-13T17:03:25.186Z,61.96
2023-01-13T17:06:03.996Z,61.29
2023-01-13T17:08:32.796Z,60.21
2023-01-13T17:11:01.741Z,59.83
2023-01-13T17:13:30.459Z,59.84
2023-01-13T17:15:59.121Z,60.15
2023-01-13T17:18:32.065Z,60.32
2023-01-13T17:21:01.740Z,60.41
2023-01-13T17:23:31.879Z,60.56
2023-01-13T17:26:00.942Z,60.90
2023-01-13T17:28:29.943Z,60.12
2023-01-13T17:30:58.897Z,60.41
2023-01-13T17:33:27.741Z,64.51
2023-01-13T17:35:56.547Z,63.79
2023-01-13T17:38:25.343Z,62.88
2023-01-13T17:40:54.090Z,62.73
2023-01-13T17:43:22.807Z,62.95
2023-01-13T17:45:52.852Z,62.65
2023-01-13T17:48:21.503Z,63.00
2023-01-13T17:50:51.659Z,63.43
2023-01-13T17:53:21.304Z,63.71
2023-01-13T17:55:55.763Z,63.83
2023-01-13T17:58:24.715Z,64.22
2023-01-13T18:00:53.643Z,63.88
2023-01-13T18:03:22.402Z,64.01
2023-01-13T18:05:51.405Z,63.69
2023-01-13T18:08:21.896Z,63.24
2023-01-13T18:10:53.144Z,62.98
2023-01-13T18:13:21.892Z,62.96
2023-01-13T18:15:50.531Z,62.19
2023-01-13T18:18:19.375Z,61.91
2023-01-13T18:21:17.649Z,61.90
2023-01-13T18:24:05.357Z,61.77
2023-01-13T18:26:52.842Z,61.56
2023-01-13T18:29:22.218Z,61.35
2023-01-13T18:31:53.350Z,61.25
2023-01-13T18:34:23.117Z,60.77
2023-01-13T18:36:54.183Z,60.61
2023-01-13T18:39:27.664Z,60.81
2023-01-13T18:42:21.207Z,60.79
2023-01-13T18:44:50.118Z,60.24
2023-01-13T18:47:19.497Z,59.64
2023-01-13T18:49:49.236Z,61.22
2023-01-13T18:52:18.006Z,65.30
2023-01-13T18:54:47.899Z,66.59
2023-01-13T18:57:17.497Z,65.46
2023-01-13T18:59:46.300Z,64.42
2023-01-13T19:02:21.864Z,63.69
2023-01-13T19:04:50.754Z,63.27
2023-01-13T19:07:23.542Z,63.08
2023-01-13T19:10:01.797Z,62.68
2023-01-13T19:12:34.398Z,62.67
2023-01-13T19:15:05.302Z,62.80
2023-01-13T19:17:36.270Z,62.46
2023-01-13T19:20:05.668Z,62.97
2023-01-13T19:22:35.684Z,60.59
2023-01-13T19:25:06.290Z,59.85
2023-01-13T19:27:35.009Z,60.19
2023-01-13T19:30:04.267Z,62.91
2023-01-13T19:32:33.769Z,63.54
2023-01-13T19:35:02.582Z,64.58
2023-01-13T19:37:33.836Z,62.06
2023-01-13T19:40:07.043Z,60.47
2023-01-13T19:42:55.309Z,59.64
2023-01-13T19:45:27.327Z,59.30
2023-01-13T19:47:58.279Z,58.21
2023-01-13T19:50:27.069Z,59.43
2023-01-13T19:52:55.741Z,60.62
2023-01-13T19:55:24.701Z,64.40
2023-01-13T19:57:53.421Z,67.53
2023-01-13T20:00:22.369Z,65.62
2023-01-13T20:02:53.495Z,62.39
2023-01-13T20:05:26.149Z,60.82
2023-01-13T20:07:55.019Z,60.53
2023-01-13T20:10:25.053Z,60.42
2023-01-13T20:12:53.702Z,59.43
2023-01-13T20:15:22.484Z,58.79
2023-01-13T20:17:51.222Z,60.80
2023-01-13T20:20:22.545Z,64.54
2023-01-13T20:22:51.212Z,67.21
2023-01-13T20:25:20.784Z,64.90
2023-01-13T20:27:49.742Z,62.49
2023-01-13T20:30:18.491Z,60.77
2023-01-13T20:32:47.243Z,59.77
2023-01-13T20:35:16.061Z,57.67
2023-01-13T20:37:45.009Z,59.54
2023-01-13T20:40:16.415Z,63.78
2023-01-13T20:42:45.550Z,64.13
2023-01-13T20:45:20.768Z,62.57
2023-01-13T20:47:50.824Z,62.41
2023-01-13T20:50:19.721Z,61.85
2023-01-13T20:52:48.862Z,60.70
2023-01-13T20:55:17.590Z,62.06
2023-01-13T20:57:49.250Z,63.16
2023-01-13T21:00:18.687Z,62.89
2023-01-13T21:02:47.404Z,63.28
2023-01-13T21:05:16.612Z,64.20
2023-01-13T21:07:45.505Z,64.67
2023-01-13T21:10:14.261Z,64.49
2023-01-13T21:13:01.784Z,64.19
2023-01-13T21:15:30.824Z,63.81
2023-01-13T21:18:18.052Z,63.00
2023-01-13T21:20:46.759Z,62.29
2023-01-13T21:23:15.579Z,62.22
2023-01-13T21:25:44.337Z,62.10
2023-01-13T21:28:14.024Z,61.60
2023-01-13T21:30:44.199Z,60.99
2023-01-13T21:33:14.638Z,59.96
2023-01-13T21:35:43.410Z,60.48
2023-01-13T21:38:12.427Z,60.34
2023-01-13T21:40:41.081Z,60.20
2023-01-13T21:43:31.837Z,60.66
2023-01-13T21:46:19.221Z,60.52
2023-01-13T21:48:47.959Z,60.16
2023-01-13T21:51:17.205Z,60.24
2023-01-13T21:53:45.758Z,60.51
2023-01-13T21:56:14.533Z,60.73
2023-01-13T21:58:43.447Z,60.29
2023-01-13T22:01:12.342Z,60.77
2023-01-13T22:04:00.692Z,60.98
2023-01-13T22:06:29.471Z,61.10
2023-01-13T22:09:01.550Z,60.80
2023-01-13T22:11:32.220Z,60.69
2023-01-13T22:14:07.344Z,60.52
2023-01-13T22:16:42.013Z,60.62
2023-01-13T22:19:11.736Z,61.02
2023-01-13T22:21:40.625Z,61.60
2023-01-13T22:24:10.210Z,61.78
2023-01-13T22:26:38.925Z,61.49
2023-01-13T22:29:07.581Z,61.43
2023-01-13T22:31:36.480Z,61.80
2023-01-13T22:34:05.307Z,61.97
2023-01-13T22:36:34.085Z,62.90
2023-01-13T22:39:03.068Z,63.42
2023-01-13T22:41:32.025Z,63.38
2023-01-13T22:44:00.786Z,63.36
2023-01-13T22:46:29.579Z,63.17
2023-01-13T22:48:58.250Z,62.81
2023-01-13T22:51:27.668Z,62.70
2023-01-13T22:53:56.951Z,62.74
2023-01-13T22:56:27.530Z,62.55
2023-01-13T22:59:02.202Z,62.32
2023-01-13T23:02:10.784Z,62.33
2023-01-13T23:05:51.172Z,62.30
2023-01-13T23:35:07.454Z,60.60
2023-01-13T23:42:26.837Z,59.77
2023-01-13T23:57:46.265Z,60.53
